METAR Data
IDs: Format: Raw Decoded Include TAF

Data at: 0823 UTC 02 Aug 2021

METAR for:KELA (Eagle Lake Arpt, TX, US)
Text:KELA 020740Z AUTO 22005KT 10SM CLR 27/25 A3001 RMK AO2 T02670253
Temperature: 26.7°C ( 80°F)
Dewpoint: 25.3°C ( 78°F) [RH = 92%]
Pressure (altimeter):30.01 inches Hg (1016.3 mb)
Winds:from the SW (220 degrees) at 6 MPH (5 knots; 2.6 m/s)
Visibility:10 or more sm (16+ km)
Ceiling:at least 12,000 feet AGL
Clouds:sky clear below 12,000 feet AGL
QC Flag:automated observation with no human augmentation

TAF for:KELA (Eagle Lake Arpt, TX, US)
Text:No data found